createdAt,value
2022-12-11T00:00:54.343Z,17.88
2022-12-11T00:03:22.109Z,17.42
2022-12-11T00:05:51.723Z,19.95
2022-12-11T00:08:19.474Z,21.33
2022-12-11T00:10:49.898Z,23.13
2022-12-11T00:13:17.770Z,26.63
2022-12-11T00:15:45.547Z,27.35
2022-12-11T00:18:14.755Z,24.65
2022-12-11T00:20:42.934Z,26.55
2022-12-11T00:23:12.422Z,25.45
2022-12-11T00:25:43.186Z,26.52
2022-12-11T00:28:11.050Z,28.42
2022-12-11T00:30:41.954Z,27.38
2022-12-11T00:33:10.678Z,25.58
2022-12-11T00:35:39.506Z,26.27
2022-12-11T00:38:07.693Z,27.33
2022-12-11T00:40:37.185Z,27.42
2022-12-11T00:43:05.346Z,26.23
2022-12-11T00:45:37.355Z,27.02
2022-12-11T00:48:05.704Z,27.85
2022-12-11T00:50:33.522Z,29.40
2022-12-11T00:53:01.497Z,29.23
2022-12-11T00:55:29.575Z,27.48
2022-12-11T00:57:59.052Z,26.13
2022-12-11T01:00:26.908Z,25.08
2022-12-11T01:02:55.044Z,24.55
2022-12-11T01:05:22.917Z,23.73
2022-12-11T01:07:50.705Z,23.42
2022-12-11T01:10:27.616Z,24.05
2022-12-11T01:13:00.147Z,23.55
2022-12-11T01:15:30.869Z,25.25
2022-12-11T01:17:59.374Z,23.45
2022-12-11T01:20:28.087Z,21.05
2022-12-11T01:22:59.133Z,20.83
2022-12-11T01:25:27.412Z,20.13
2022-12-11T01:27:56.466Z,20.58
2022-12-11T01:30:26.807Z,19.60
2022-12-11T01:32:54.629Z,19.13
2022-12-11T01:35:23.076Z,20.35
2022-12-11T01:37:51.307Z,18.92
2022-12-11T01:40:21.382Z,20.33
2022-12-11T01:42:49.262Z,19.20
2022-12-11T01:45:44.564Z,19.23
2022-12-11T01:48:15.318Z,18.48
2022-12-11T01:50:47.036Z,19.60
2022-12-11T01:53:19.530Z,21.70
2022-12-11T01:55:48.664Z,20.77
2022-12-11T01:58:19.205Z,20.15
2022-12-11T02:00:48.521Z,20.17
2022-12-11T02:03:16.498Z,20.95
2022-12-11T02:05:44.753Z,21.55
2022-12-11T02:08:13.352Z,20.17
2022-12-11T02:10:53.634Z,21.33
2022-12-11T02:13:28.923Z,20.25
2022-12-11T02:16:04.852Z,20.23
2022-12-11T02:18:40.092Z,19.65
2022-12-11T02:21:12.099Z,20.80
2022-12-11T02:24:01.922Z,21.15
2022-12-11T02:27:04.486Z,21.88
2022-12-11T02:29:38.627Z,21.25
2022-12-11T02:32:13.732Z,22.25
2022-12-11T02:34:44.313Z,23.20
2022-12-11T02:37:17.449Z,21.20
2022-12-11T02:39:48.168Z,22.67
2022-12-11T02:42:17.278Z,23.13
2022-12-11T02:44:49.888Z,22.48
2022-12-11T02:47:21.002Z,21.70
2022-12-11T02:49:50.813Z,22.50
2022-12-11T02:52:21.408Z,23.52
2022-12-11T02:54:53.135Z,24.17
2022-12-11T02:57:29.180Z,24.60
2022-12-11T02:59:58.414Z,23.70
2022-12-11T03:02:26.644Z,25.35
2022-12-11T03:04:55.144Z,26.42
2022-12-11T03:07:26.288Z,27.50
2022-12-11T03:09:54.386Z,29.17
2022-12-11T03:12:28.991Z,29.48
2022-12-11T03:15:00.901Z,31.42
2022-12-11T03:20:06.025Z,27.25
2022-12-11T03:22:41.630Z,31.52
2022-12-11T03:25:14.673Z,30.35
2022-12-11T03:27:49.318Z,32.97
2022-12-11T03:30:22.618Z,29.45
2022-12-11T03:32:54.302Z,28.50
2022-12-11T03:35:26.657Z,27.77
2022-12-11T03:37:58.945Z,30.30
2022-12-11T03:40:28.979Z,29.50
2022-12-11T03:42:58.913Z,29.95
2022-12-11T03:45:30.873Z,31.33
2022-12-11T03:50:32.549Z,27.90
2022-12-11T03:53:02.643Z,27.73
2022-12-11T03:55:31.548Z,28.17
2022-12-11T03:57:59.391Z,28.48
2022-12-11T04:00:29.231Z,26.70
2022-12-11T04:03:16.040Z,26.50
2022-12-11T04:05:46.032Z,27.17
2022-12-11T04:08:14.481Z,26.45
2022-12-11T04:10:42.577Z,25.30
2022-12-11T04:13:11.259Z,24.45
2022-12-11T04:15:40.448Z,24.00
2022-12-11T04:18:26.997Z,21.88
2022-12-11T04:21:12.978Z,23.70
2022-12-11T04:23:57.983Z,22.00
2022-12-11T04:26:26.030Z,22.25
2022-12-11T04:28:53.863Z,21.52
2022-12-11T04:31:23.774Z,20.67
2022-12-11T04:33:51.762Z,22.17
2022-12-11T04:36:19.705Z,21.73
2022-12-11T04:38:47.518Z,20.67
2022-12-11T04:41:17.539Z,21.13
2022-12-11T04:43:46.390Z,21.65
2022-12-11T04:46:16.507Z,20.40
2022-12-11T04:48:47.854Z,20.10
2022-12-11T04:51:18.749Z,22.30
2022-12-11T04:53:46.620Z,20.33
2022-12-11T04:56:16.926Z,20.42
2022-12-11T04:58:45.313Z,20.48
2022-12-11T05:01:14.948Z,21.42
2022-12-11T05:03:43.928Z,21.55
2022-12-11T05:06:13.197Z,20.20
2022-12-11T05:08:42.591Z,20.40
2022-12-11T05:11:11.821Z,21.00
2022-12-11T05:13:40.506Z,20.88
2022-12-11T05:16:12.536Z,23.13
2022-12-11T05:18:40.712Z,22.98
2022-12-11T05:21:11.903Z,21.55
2022-12-11T05:23:41.701Z,22.35
2022-12-11T05:26:12.399Z,21.52
2022-12-11T05:28:41.166Z,22.30
2022-12-11T05:31:12.797Z,22.80
2022-12-11T05:33:40.663Z,23.85
2022-12-11T05:36:09.569Z,22.08
2022-12-11T05:38:37.399Z,22.33
2022-12-11T05:41:07.902Z,21.63
2022-12-11T05:43:37.421Z,21.30
2022-12-11T05:46:09.110Z,22.02
2022-12-11T05:48:38.322Z,20.83
2022-12-11T05:51:08.294Z,21.38
2022-12-11T05:53:36.709Z,22.63
2022-12-11T05:56:08.078Z,22.58
2022-12-11T05:58:36.207Z,21.15
2022-12-11T06:01:09.155Z,21.00
2022-12-11T06:03:36.953Z,21.33
2022-12-11T06:06:05.258Z,22.02
2022-12-11T06:08:33.744Z,20.83
2022-12-11T06:11:01.810Z,20.80
2022-12-11T06:13:31.280Z,20.60
2022-12-11T06:16:02.951Z,22.00
2022-12-11T06:18:31.143Z,21.52
2022-12-11T06:20:59.252Z,21.77
2022-12-11T06:23:26.954Z,22.55
2022-12-11T06:25:54.695Z,21.00
2022-12-11T06:28:22.525Z,21.38
2022-12-11T06:30:51.622Z,21.75
2022-12-11T06:33:19.376Z,19.65
2022-12-11T06:35:47.209Z,17.63
2022-12-11T06:38:14.970Z,18.75
2022-12-11T06:40:42.690Z,18.77
2022-12-11T06:43:10.793Z,18.67
2022-12-11T06:45:39.064Z,19.00
2022-12-11T06:48:08.280Z,19.35
2022-12-11T06:50:36.045Z,20.25
2022-12-11T06:53:03.846Z,18.35
2022-12-11T06:55:31.628Z,19.40
2022-12-11T06:57:59.387Z,18.58
2022-12-11T07:00:27.385Z,18.40
2022-12-11T07:02:55.188Z,18.58
2022-12-11T07:05:24.684Z,19.55
2022-12-11T07:07:55.673Z,19.38
2022-12-11T07:10:24.869Z,18.35
2022-12-11T07:12:53.607Z,19.40
2022-12-11T07:15:21.962Z,18.05
2022-12-11T07:17:49.868Z,18.75
2022-12-11T07:20:17.950Z,19.10
2022-12-11T07:22:47.125Z,18.98
2022-12-11T07:25:15.686Z,19.08
2022-12-11T07:27:43.641Z,19.25
2022-12-11T07:30:12.653Z,18.80
2022-12-11T07:32:40.465Z,18.52
2022-12-11T07:35:09.748Z,19.55
2022-12-11T07:37:38.238Z,19.42
2022-12-11T07:40:08.996Z,19.02
2022-12-11T07:42:39.245Z,18.95
2022-12-11T07:45:12.197Z,19.45
2022-12-11T07:47:40.212Z,18.50
2022-12-11T07:50:08.275Z,19.15
2022-12-11T07:52:36.310Z,19.38
2022-12-11T07:55:04.532Z,19.42
2022-12-11T07:57:33.715Z,20.85
2022-12-11T08:00:01.577Z,20.92
2022-12-11T08:02:34.029Z,19.73
2022-12-11T08:05:05.258Z,19.73
2022-12-11T08:07:35.383Z,19.70
2022-12-11T08:10:03.173Z,20.20
2022-12-11T08:12:30.986Z,19.38
2022-12-11T08:15:00.135Z,18.77
2022-12-11T08:17:31.026Z,19.00
2022-12-11T08:20:01.731Z,18.38
2022-12-11T08:22:29.484Z,19.05
2022-12-11T08:24:57.324Z,16.77
2022-12-11T08:27:26.630Z,17.63
2022-12-11T08:29:54.395Z,18.33
2022-12-11T08:32:23.540Z,18.65
2022-12-11T08:34:52.652Z,20.10
2022-12-11T08:37:20.563Z,18.48
2022-12-11T08:39:48.640Z,19.83
2022-12-11T08:42:16.523Z,19.08
2022-12-11T08:44:44.278Z,21.20
2022-12-11T08:47:12.067Z,19.52
2022-12-11T08:49:41.328Z,19.85
2022-12-11T08:52:09.095Z,18.85
2022-12-11T08:54:38.305Z,19.98
2022-12-11T08:57:06.571Z,18.35
2022-12-11T08:59:34.597Z,18.50
2022-12-11T09:02:02.313Z,18.85
2022-12-11T09:04:30.272Z,17.23
2022-12-11T09:06:59.549Z,17.90
2022-12-11T09:09:27.284Z,16.58
2022-12-11T09:11:55.370Z,17.63
2022-12-11T09:14:23.333Z,17.20
2022-12-11T09:16:51.185Z,17.42
2022-12-11T09:19:18.971Z,18.17
2022-12-11T09:21:47.055Z,17.65
2022-12-11T09:24:16.659Z,17.05
2022-12-11T09:26:44.479Z,17.15
2022-12-11T09:29:12.956Z,16.17
2022-12-11T09:31:41.056Z,16.70
2022-12-11T09:34:11.401Z,15.80
2022-12-11T09:36:40.204Z,17.02
2022-12-11T09:39:10.154Z,16.92
2022-12-11T09:41:41.514Z,16.05
2022-12-11T09:44:32.764Z,17.92
2022-12-11T09:47:00.902Z,17.30
2022-12-11T09:49:36.355Z,16.38
2022-12-11T09:52:12.011Z,15.27
2022-12-11T09:54:44.984Z,16.92
2022-12-11T09:57:29.064Z,14.10
2022-12-11T10:00:09.652Z,16.17
2022-12-11T10:02:51.800Z,15.35
2022-12-11T10:05:31.041Z,14.70
2022-12-11T10:08:05.293Z,15.05
2022-12-11T10:10:42.783Z,14.98
2022-12-11T10:13:24.920Z,16.58
2022-12-11T10:15:57.271Z,16.15
2022-12-11T10:18:27.334Z,17.20
2022-12-11T10:20:57.131Z,15.63
2022-12-11T10:23:35.474Z,14.48
2022-12-11T10:26:06.915Z,14.75
2022-12-11T10:28:36.789Z,17.80
2022-12-11T10:31:12.046Z,16.67
2022-12-11T10:33:47.909Z,14.52
2022-12-11T10:36:19.989Z,15.18
2022-12-11T10:38:47.897Z,14.43
2022-12-11T10:41:21.155Z,14.60
2022-12-11T10:43:51.945Z,14.43
2022-12-11T10:46:21.826Z,13.68
2022-12-11T10:48:50.866Z,16.23
2022-12-11T10:51:18.860Z,15.63
2022-12-11T10:53:51.984Z,14.27
2022-12-11T10:56:27.297Z,15.68
2022-12-11T10:58:58.668Z,15.75
2022-12-11T11:01:28.833Z,15.02
2022-12-11T11:04:01.285Z,16.25
2022-12-11T11:06:29.147Z,14.88
2022-12-11T11:08:58.899Z,14.90
2022-12-11T11:11:30.025Z,15.57
2022-12-11T11:14:15.305Z,17.48
2022-12-11T11:16:45.814Z,15.57
2022-12-11T11:19:22.063Z,14.75
2022-12-11T11:21:52.724Z,14.95
2022-12-11T11:24:34.709Z,15.30
2022-12-11T11:27:18.007Z,16.98
2022-12-11T11:29:52.828Z,15.98
2022-12-11T11:32:24.584Z,16.55
2022-12-11T11:34:52.350Z,13.50
2022-12-11T11:37:27.210Z,16.10
2022-12-11T11:39:59.210Z,16.92
2022-12-11T11:45:08.036Z,15.63
2022-12-11T11:47:40.463Z,16.63
2022-12-11T11:50:13.823Z,16.08
2022-12-11T11:52:47.658Z,16.55
2022-12-11T11:55:22.366Z,16.95
2022-12-11T11:57:58.594Z,17.60
2022-12-11T12:00:33.569Z,19.10
2022-12-11T12:03:07.120Z,19.70
2022-12-11T12:05:44.299Z,19.73
2022-12-11T12:08:18.259Z,20.08
2022-12-11T12:10:54.450Z,18.42
2022-12-11T12:13:49.194Z,19.35
2022-12-11T12:16:56.367Z,18.85
2022-12-11T12:19:38.929Z,18.00
2022-12-11T12:22:21.611Z,19.90
2022-12-11T12:25:02.181Z,18.65
2022-12-11T12:27:55.277Z,17.98
2022-12-11T12:30:24.188Z,18.00
2022-12-11T12:33:16.307Z,18.10
2022-12-11T12:35:55.036Z,17.70
2022-12-11T12:38:27.789Z,19.35
2022-12-11T12:41:07.651Z,19.05
2022-12-11T12:44:01.461Z,18.65
2022-12-11T12:46:41.901Z,18.73
2022-12-11T12:49:16.738Z,18.30
2022-12-11T12:51:45.358Z,20.25
2022-12-11T12:54:17.015Z,19.33
2022-12-11T12:56:47.108Z,19.17
2022-12-11T12:59:23.152Z,19.65
2022-12-11T13:01:55.513Z,19.85
2022-12-11T13:07:29.853Z,19.15
2022-12-11T13:10:08.602Z,19.67
2022-12-11T13:12:44.060Z,20.38
2022-12-11T13:15:40.630Z,20.77
2022-12-11T13:18:34.930Z,19.92
2022-12-11T13:21:05.561Z,21.17
2022-12-11T13:23:35.005Z,19.20
2022-12-11T13:26:04.475Z,18.73
2022-12-11T13:28:47.190Z,19.48
2022-12-11T13:31:34.904Z,20.25
2022-12-11T13:34:16.371Z,19.52
2022-12-11T13:36:50.953Z,19.52
2022-12-11T13:39:21.951Z,18.75
2022-12-11T13:41:53.605Z,20.58
2022-12-11T13:44:25.796Z,21.80
2022-12-11T13:46:56.050Z,19.92
2022-12-11T13:49:27.309Z,20.13
2022-12-11T13:51:59.532Z,20.83
2022-12-11T13:54:28.693Z,20.20
2022-12-11T13:56:59.097Z,20.20
2022-12-11T13:59:29.900Z,19.95
2022-12-11T14:02:02.317Z,21.00
2022-12-11T14:04:31.436Z,19.52
2022-12-11T14:07:00.731Z,20.17
2022-12-11T14:09:29.625Z,20.90
2022-12-11T14:12:01.675Z,19.42
2022-12-11T14:14:41.468Z,18.80
2022-12-11T14:17:15.039Z,18.90
2022-12-11T14:19:48.124Z,19.27
2022-12-11T14:22:22.323Z,18.75
2022-12-11T14:24:51.664Z,17.63
2022-12-11T14:27:20.783Z,18.27
2022-12-11T14:29:49.406Z,17.40
2022-12-11T14:32:25.091Z,18.88
2022-12-11T14:34:54.709Z,18.63
2022-12-11T14:37:26.595Z,18.40
2022-12-11T14:42:30.320Z,15.43
2022-12-11T14:45:03.095Z,17.70
2022-12-11T14:47:35.344Z,18.38
2022-12-11T14:50:07.498Z,18.70
2022-12-11T14:52:39.521Z,19.88
2022-12-11T14:55:11.608Z,18.65
2022-12-11T14:57:42.473Z,19.45
2022-12-11T15:00:23.765Z,19.15
2022-12-11T15:03:00.148Z,18.17
2022-12-11T15:05:28.032Z,18.33
2022-12-11T15:07:59.724Z,19.98
2022-12-11T15:10:37.689Z,18.35
2022-12-11T15:13:08.142Z,18.85
2022-12-11T15:15:44.617Z,19.73
2022-12-11T15:18:20.862Z,19.05
2022-12-11T15:20:52.962Z,18.45
2022-12-11T15:23:22.336Z,19.15
2022-12-11T15:25:54.813Z,19.88
2022-12-11T15:28:30.865Z,18.65
2022-12-11T15:31:01.198Z,18.75
2022-12-11T15:33:34.356Z,19.17
2022-12-11T15:36:04.162Z,18.77
2022-12-11T15:38:36.729Z,19.75
2022-12-11T15:41:05.692Z,21.90
2022-12-11T15:43:37.443Z,19.67
2022-12-11T15:46:06.316Z,20.75
2022-12-11T15:48:34.734Z,19.73
2022-12-11T15:51:03.765Z,19.50
2022-12-11T15:53:34.496Z,21.35
2022-12-11T15:56:02.912Z,20.27
2022-12-11T15:58:31.454Z,22.15
2022-12-11T16:00:59.289Z,19.92
2022-12-11T16:03:27.532Z,22.00
2022-12-11T16:05:55.305Z,21.58
2022-12-11T16:08:24.664Z,21.75
2022-12-11T16:10:55.576Z,22.77
2022-12-11T16:13:23.964Z,21.10
2022-12-11T16:15:53.850Z,21.75
2022-12-11T16:18:24.597Z,22.20
2022-12-11T16:20:53.311Z,22.15
2022-12-11T16:23:21.918Z,22.80
2022-12-11T16:25:50.551Z,21.30
2022-12-11T16:28:21.564Z,22.15
2022-12-11T16:30:50.092Z,22.27
2022-12-11T16:33:18.086Z,21.77
2022-12-11T16:35:45.833Z,22.38
2022-12-11T16:38:13.626Z,23.90
2022-12-11T16:40:41.723Z,22.20
2022-12-11T16:43:09.512Z,22.67
2022-12-11T16:45:38.635Z,22.45
2022-12-11T16:48:06.732Z,21.90
2022-12-11T16:50:36.118Z,21.83
2022-12-11T16:53:03.901Z,21.83
2022-12-11T16:55:31.734Z,20.67
2022-12-11T16:57:59.448Z,21.58
2022-12-11T17:00:27.215Z,22.35
2022-12-11T17:02:57.448Z,21.58
2022-12-11T17:05:25.267Z,22.38
2022-12-11T17:07:53.096Z,21.98
2022-12-11T17:10:20.901Z,21.98
2022-12-11T17:12:48.659Z,21.52
2022-12-11T17:15:16.525Z,21.95
2022-12-11T17:17:44.347Z,22.10
2022-12-11T17:20:13.972Z,23.00
2022-12-11T17:22:41.876Z,21.08
2022-12-11T17:25:10.367Z,20.75
2022-12-11T17:27:38.901Z,20.80
2022-12-11T17:30:07.662Z,22.67
2022-12-11T17:32:35.761Z,21.95
2022-12-11T17:35:03.854Z,21.30
2022-12-11T17:37:33.679Z,22.88
2022-12-11T17:40:01.393Z,20.15
2022-12-11T17:42:29.103Z,21.23
2022-12-11T17:44:56.810Z,21.45
2022-12-11T17:47:24.686Z,22.02
2022-12-11T17:49:52.842Z,21.33
2022-12-11T17:52:20.625Z,23.67
2022-12-11T17:54:49.826Z,23.25
2022-12-11T17:57:17.591Z,23.08
2022-12-11T17:59:45.848Z,24.27
2022-12-11T18:02:13.792Z,24.98
2022-12-11T18:04:41.609Z,23.92
2022-12-11T18:07:09.411Z,24.33
2022-12-11T18:09:40.098Z,24.90
2022-12-11T18:12:09.759Z,24.88
2022-12-11T18:14:38.016Z,24.42
2022-12-11T18:17:06.123Z,25.90
2022-12-11T18:19:33.885Z,25.42
2022-12-11T18:22:01.794Z,25.15
2022-12-11T18:24:31.885Z,25.50
2022-12-11T18:27:00.262Z,25.67
2022-12-11T18:29:29.882Z,24.45
2022-12-11T18:31:57.693Z,25.00
2022-12-11T18:34:25.504Z,23.70
2022-12-11T18:36:53.353Z,23.90
2022-12-11T18:39:21.178Z,24.98
2022-12-11T18:42:03.507Z,26.45
2022-12-11T18:44:38.234Z,25.13
2022-12-11T18:47:07.046Z,25.48
2022-12-11T18:49:34.858Z,26.08
2022-12-11T18:52:02.642Z,32.30
2022-12-11T18:54:30.473Z,27.45
2022-12-11T18:56:58.258Z,26.40
2022-12-11T18:59:26.141Z,25.67
2022-12-11T19:01:55.340Z,27.13
2022-12-11T19:04:23.207Z,27.10
2022-12-11T19:06:51.000Z,26.60
2022-12-11T19:09:18.845Z,25.10
2022-12-11T19:11:47.820Z,26.38
2022-12-11T19:14:15.584Z,22.90
2022-12-11T19:16:45.739Z,23.67
2022-12-11T19:19:17.478Z,24.60
2022-12-11T19:21:45.963Z,24.88
2022-12-11T19:24:16.618Z,23.30
2022-12-11T19:26:45.447Z,24.73
2022-12-11T19:29:21.633Z,25.90
2022-12-11T19:31:49.912Z,31.33
2022-12-11T19:34:19.233Z,28.00
2022-12-11T19:36:47.060Z,28.05
2022-12-11T19:39:15.341Z,26.65
2022-12-11T19:41:43.317Z,25.92
2022-12-11T19:44:12.188Z,26.63
2022-12-11T19:46:40.758Z,25.52
2022-12-11T19:49:08.717Z,26.45
2022-12-11T19:51:40.630Z,26.38
2022-12-11T19:54:10.069Z,24.52
2022-12-11T19:56:38.069Z,24.48
2022-12-11T19:59:08.346Z,26.17
2022-12-11T20:01:38.370Z,27.23
2022-12-11T20:04:08.357Z,27.13
2022-12-11T20:06:40.946Z,27.23
2022-12-11T20:09:11.996Z,28.33
2022-12-11T20:11:40.835Z,27.30
2022-12-11T20:14:08.846Z,29.10
2022-12-11T20:17:09.458Z,28.65
2022-12-11T20:19:24.391Z,28.55
2022-12-11T20:21:53.553Z,28.05
2022-12-11T20:24:21.347Z,29.08
2022-12-11T20:26:49.788Z,29.20
2022-12-11T20:29:17.615Z,30.08
2022-12-11T20:31:46.781Z,28.95
2022-12-11T20:34:15.143Z,30.60
2022-12-11T20:36:42.894Z,27.92
2022-12-11T20:39:12.124Z,28.77
2022-12-11T20:41:39.841Z,28.00
2022-12-11T20:44:08.122Z,27.98
2022-12-11T20:46:35.926Z,29.55
2022-12-11T20:49:04.309Z,29.13
2022-12-11T20:51:32.754Z,28.23
2022-12-11T20:54:01.317Z,29.48
2022-12-11T20:56:31.634Z,28.98
2022-12-11T20:59:00.699Z,29.13
2022-12-11T21:01:30.701Z,27.85
2022-12-11T21:03:59.017Z,28.45
2022-12-11T21:06:31.070Z,30.38
2022-12-11T21:09:00.351Z,27.20
2022-12-11T21:11:28.708Z,24.88
2022-12-11T21:13:58.109Z,25.70
2022-12-11T21:16:26.274Z,25.90
2022-12-11T21:18:54.412Z,24.50
2022-12-11T21:21:22.281Z,25.63
2022-12-11T21:23:50.348Z,24.48
2022-12-11T21:26:19.835Z,25.83
2022-12-11T21:28:47.660Z,27.23
2022-12-11T21:31:19.600Z,27.60
2022-12-11T21:33:47.557Z,32.75
2022-12-11T21:36:16.803Z,27.25
2022-12-11T21:38:46.122Z,24.60
2022-12-11T21:41:16.984Z,26.05
2022-12-11T21:44:56.205Z,18.60
2022-12-11T21:46:35.357Z,26.98
2022-12-11T21:49:03.292Z,25.98
2022-12-11T21:51:37.144Z,28.75
2022-12-11T21:54:09.201Z,26.38
2022-12-11T21:56:37.389Z,29.05
2022-12-11T21:59:05.419Z,28.42
2022-12-11T22:01:38.208Z,28.33
2022-12-11T22:04:06.741Z,28.98
2022-12-11T22:06:35.065Z,29.65
2022-12-11T22:09:03.061Z,28.17
2022-12-11T22:11:33.482Z,29.05
2022-12-11T22:14:02.131Z,29.38
2022-12-11T22:16:29.951Z,29.48
2022-12-11T22:18:59.186Z,29.08
2022-12-11T22:21:27.283Z,29.52
2022-12-11T22:23:55.088Z,30.83
2022-12-11T22:26:25.057Z,29.20
2022-12-11T22:28:54.191Z,30.48
2022-12-11T22:31:23.895Z,31.92
2022-12-11T22:33:53.698Z,31.77
2022-12-11T22:36:23.471Z,30.70
2022-12-11T22:38:51.311Z,31.73
2022-12-11T22:41:24.981Z,31.48
2022-12-11T22:43:53.429Z,33.63
2022-12-11T22:46:25.648Z,33.38
2022-12-11T22:48:53.908Z,34.55
2022-12-11T22:51:23.096Z,34.17
2022-12-11T22:53:50.933Z,37.10
2022-12-11T22:56:19.031Z,34.35
2022-12-11T22:58:46.973Z,34.72
2022-12-11T23:01:18.198Z,35.22
2022-12-11T23:03:46.385Z,36.13
2022-12-11T23:06:16.393Z,36.28
2022-12-11T23:08:46.171Z,37.40
2022-12-11T23:11:16.308Z,34.85
2022-12-11T23:13:44.369Z,36.58
2022-12-11T23:16:13.101Z,37.83
2022-12-11T23:18:40.915Z,34.42
2022-12-11T23:21:09.813Z,41.97
2022-12-11T23:23:38.112Z,36.47
2022-12-11T23:26:09.554Z,36.58
2022-12-11T23:28:37.537Z,34.65
2022-12-11T23:31:05.931Z,36.28
2022-12-11T23:33:33.741Z,38.47
2022-12-11T23:36:01.936Z,36.97
2022-12-11T23:38:29.764Z,34.60
2022-12-11T23:41:00.115Z,36.72
2022-12-11T23:43:29.321Z,36.50
2022-12-11T23:45:57.647Z,35.78
2022-12-11T23:48:25.630Z,36.28
2022-12-11T23:50:53.632Z,35.55
2022-12-11T23:53:21.426Z,36.33
2022-12-11T23:55:49.713Z,38.10
2022-12-11T23:58:17.519Z,36.13
